createdAt,value
2018-11-05T00:00:27.535Z,1001.52
2018-11-05T00:01:07.897Z,1001.51
2018-11-05T00:01:48.329Z,1001.5
2018-11-05T00:02:28.685Z,1001.51
2018-11-05T00:03:09.072Z,1001.47
2018-11-05T00:03:49.637Z,1001.46
2018-11-05T00:04:29.965Z,1001.43
2018-11-05T00:06:57.781Z,1001.4
2018-11-05T00:07:38.134Z,1001.39
2018-11-05T00:08:18.742Z,1001.39
2018-11-05T00:08:58.996Z,1001.37
2018-11-05T00:09:39.440Z,1001.37
2018-11-05T00:10:19.847Z,1001.29
2018-11-05T00:11:00.301Z,1001.31
2018-11-05T00:11:40.653Z,1001.3
2018-11-05T00:12:21.373Z,1001.31
2018-11-05T00:13:01.659Z,1001.34
2018-11-05T00:13:42.078Z,1001.34
2018-11-05T00:14:22.394Z,1001.3
2018-11-05T00:15:02.846Z,1001.33
2018-11-05T00:15:43.203Z,1001.33
2018-11-05T00:16:23.664Z,1001.34
2018-11-05T00:17:04.230Z,1001.34
2018-11-05T00:17:45.191Z,1001.34
2018-11-05T00:18:25.635Z,1001.35
2018-11-05T00:19:06.011Z,1001.31
2018-11-05T00:19:46.421Z,1001.33
2018-11-05T00:20:26.829Z,1001.31
2018-11-05T00:21:07.300Z,1001.31
2018-11-05T00:21:47.759Z,1001.27
2018-11-05T00:22:28.291Z,1001.23
2018-11-05T00:23:08.648Z,1001.19
2018-11-05T00:23:49.069Z,1001.16
2018-11-05T00:24:29.524Z,1001.21
2018-11-05T00:25:09.871Z,1001.21
2018-11-05T00:25:50.365Z,1001.16
2018-11-05T00:26:30.769Z,1001.18
2018-11-05T00:27:11.185Z,1001.18
2018-11-05T00:27:51.517Z,1001.17
2018-11-05T00:28:32.079Z,1001.19
2018-11-05T00:29:12.366Z,1001.15
2018-11-05T00:29:52.901Z,1001.17
2018-11-05T00:30:33.339Z,1001.13
2018-11-05T00:31:13.714Z,1001.14
2018-11-05T00:31:54.301Z,1001.13
2018-11-05T00:32:35.012Z,1001.11
2018-11-05T00:33:15.316Z,1001.09
2018-11-05T00:33:56.271Z,1001.11
2018-11-05T00:34:36.313Z,1001.07
2018-11-05T00:35:17.189Z,1001.07
2018-11-05T00:35:57.946Z,1001.01
2018-11-05T00:36:38.120Z,1001.02
2018-11-05T00:37:18.614Z,1000.96
2018-11-05T00:37:59.101Z,1000.96
2018-11-05T00:38:39.515Z,1001
2018-11-05T00:39:20.181Z,1000.99
2018-11-05T00:40:00.530Z,1001.02
2018-11-05T00:40:40.990Z,1001.05
2018-11-05T00:41:21.319Z,1001
2018-11-05T00:42:01.826Z,1001.01
2018-11-05T00:42:42.214Z,1001
2018-11-05T00:43:22.653Z,1001.02
2018-11-05T00:44:03.214Z,1000.97
2018-11-05T00:44:43.542Z,1001.04
2018-11-05T00:45:23.905Z,1001.02
2018-11-05T00:46:04.455Z,1000.91
2018-11-05T00:46:44.573Z,1000.89
2018-11-05T00:47:24.997Z,1000.93
2018-11-05T00:48:05.663Z,1000.93
2018-11-05T00:48:46.020Z,1000.94
2018-11-05T00:49:26.407Z,1000.88
2018-11-05T00:50:06.863Z,1000.86
2018-11-05T00:50:47.427Z,1000.83
2018-11-05T00:51:27.917Z,1000.85
2018-11-05T00:52:08.149Z,1000.81
2018-11-05T00:52:48.533Z,1000.81
2018-11-05T00:53:28.995Z,1000.83
2018-11-05T00:54:09.507Z,1000.8
2018-11-05T00:54:49.925Z,1000.84
2018-11-05T00:55:30.329Z,1000.82
2018-11-05T00:56:10.692Z,1000.84
2018-11-05T00:56:51.079Z,1000.79
2018-11-05T00:57:31.853Z,1000.83
2018-11-05T00:58:12.028Z,1000.83
2018-11-05T00:58:52.465Z,1000.82
2018-11-05T00:59:32.956Z,1000.78
2018-11-05T01:00:13.312Z,1000.77
2018-11-05T01:00:53.856Z,1000.74
2018-11-05T01:01:34.263Z,1000.76
2018-11-05T01:02:15.275Z,1000.76
2018-11-05T01:02:55.739Z,1000.73
2018-11-05T01:03:36.372Z,1000.72
2018-11-05T01:04:16.718Z,1000.69
2018-11-05T01:04:57.142Z,1000.69
2018-11-05T01:05:37.594Z,1000.69
2018-11-05T01:06:18.021Z,1000.68
2018-11-05T01:06:58.357Z,1000.62
2018-11-05T01:09:12.549Z,1000.67
2018-11-05T01:09:52.925Z,1000.7
2018-11-05T01:10:33.392Z,1000.68
2018-11-05T01:11:13.903Z,1000.69
2018-11-05T01:11:54.305Z,1000.72
2018-11-05T01:12:34.700Z,1000.73
2018-11-05T01:13:15.168Z,1000.68
2018-11-05T01:13:55.547Z,1000.73
2018-11-05T01:14:35.960Z,1000.74
2018-11-05T01:15:16.354Z,1000.74
2018-11-05T01:15:56.877Z,1000.69
2018-11-05T01:16:37.233Z,1000.7
2018-11-05T01:17:17.706Z,1000.67
2018-11-05T01:17:58.130Z,1000.69
2018-11-05T01:18:38.509Z,1000.69
2018-11-05T01:19:18.941Z,1000.68
2018-11-05T01:19:59.345Z,1000.7
2018-11-05T01:20:39.796Z,1000.69
2018-11-05T01:21:20.328Z,1000.7
2018-11-05T01:22:00.769Z,1000.7
2018-11-05T01:22:41.060Z,1000.74
2018-11-05T01:23:21.368Z,1000.77
2018-11-05T01:24:01.888Z,1000.75
2018-11-05T01:24:42.150Z,1000.75
2018-11-05T01:25:22.552Z,1000.79
2018-11-05T01:26:02.948Z,1000.79
2018-11-05T01:26:43.323Z,1000.78
2018-11-05T01:27:23.807Z,1000.77
2018-11-05T01:28:04.259Z,1000.77
2018-11-05T01:28:44.607Z,1000.79
2018-11-05T01:29:24.993Z,1000.72
2018-11-05T01:30:05.438Z,1000.7
2018-11-05T01:30:45.912Z,1000.72
2018-11-05T01:31:26.415Z,1000.68
2018-11-05T01:32:06.666Z,1000.68
2018-11-05T01:32:47.065Z,1000.77
2018-11-05T01:33:27.486Z,1000.73
2018-11-05T01:34:07.871Z,1000.75
2018-11-05T01:34:48.278Z,1000.78
2018-11-05T01:35:28.711Z,1000.76
2018-11-05T01:36:09.136Z,1000.73
2018-11-05T01:36:49.594Z,1000.75
2018-11-05T01:37:30.047Z,1000.71
2018-11-05T01:38:10.471Z,1000.7
2018-11-05T01:38:50.854Z,1000.71
2018-11-05T01:39:31.300Z,1000.67
2018-11-05T01:40:11.677Z,1000.66
2018-11-05T01:40:52.090Z,1000.65
2018-11-05T01:41:32.485Z,1000.65
2018-11-05T01:42:12.880Z,1000.58
2018-11-05T01:42:53.304Z,1000.6
2018-11-05T01:43:33.771Z,1000.59
2018-11-05T01:44:14.110Z,1000.55
2018-11-05T01:44:54.551Z,1000.61
2018-11-05T01:45:34.938Z,1000.6
2018-11-05T01:46:15.363Z,1000.61
2018-11-05T01:46:55.890Z,1000.59
2018-11-05T01:47:36.141Z,1000.59
2018-11-05T01:48:16.518Z,1000.56
2018-11-05T01:48:57.274Z,1000.57
2018-11-05T01:49:37.549Z,1000.58
2018-11-05T01:50:18.210Z,1000.57
2018-11-05T01:50:58.548Z,1000.55
2018-11-05T01:51:38.954Z,1000.53
2018-11-05T01:52:19.411Z,1000.51
2018-11-05T01:52:59.818Z,1000.49
2018-11-05T01:53:40.227Z,1000.48
2018-11-05T01:54:20.605Z,1000.48
2018-11-05T01:55:00.976Z,1000.5
2018-11-05T01:55:41.411Z,1000.5
2018-11-05T01:56:21.874Z,1000.5
2018-11-05T01:57:02.247Z,1000.5
2018-11-05T01:57:42.645Z,1000.5
2018-11-05T01:58:23.035Z,1000.47
2018-11-05T01:59:03.440Z,1000.48
2018-11-05T01:59:43.826Z,1000.45
2018-11-05T02:00:24.384Z,1000.5
2018-11-05T02:01:04.791Z,1000.4
2018-11-05T02:01:45.352Z,1000.4
2018-11-05T02:02:25.610Z,1000.42
2018-11-05T02:03:06.011Z,1000.39
2018-11-05T02:03:46.475Z,1000.36
2018-11-05T02:04:26.803Z,1000.34
2018-11-05T02:05:07.172Z,1000.33
2018-11-05T02:05:47.649Z,1000.32
2018-11-05T02:06:27.963Z,1000.35
2018-11-05T02:08:45.841Z,1000.32
2018-11-05T02:09:26.649Z,1000.32
2018-11-05T02:10:07.114Z,1000.32
2018-11-05T02:10:47.471Z,1000.32
2018-11-05T02:11:27.852Z,1000.32
2018-11-05T02:12:08.247Z,1000.26
2018-11-05T02:14:05.723Z,1000.27
2018-11-05T02:14:46.113Z,1000.29
2018-11-05T02:15:26.575Z,1000.35
2018-11-05T02:16:07.125Z,1000.32
2018-11-05T02:16:47.334Z,1000.3
2018-11-05T02:17:27.773Z,1000.31
2018-11-05T02:18:08.129Z,1000.34
2018-11-05T02:18:48.554Z,1000.32
2018-11-05T02:19:28.881Z,1000.33
2018-11-05T02:20:09.274Z,1000.34
2018-11-05T02:20:49.679Z,1000.26
2018-11-05T02:21:30.069Z,1000.3
2018-11-05T02:22:10.559Z,1000.26
2018-11-05T02:22:50.958Z,1000.24
2018-11-05T02:23:31.294Z,1000.27
2018-11-05T02:24:11.888Z,1000.25
2018-11-05T02:24:52.261Z,1000.25
2018-11-05T02:25:32.747Z,1000.21
2018-11-05T02:26:13.020Z,1000.19
2018-11-05T02:26:53.496Z,1000.19
2018-11-05T02:27:33.837Z,1000.21
2018-11-05T02:28:14.467Z,1000.22
2018-11-05T02:28:55.040Z,1000.23
2018-11-05T02:29:35.412Z,1000.25
2018-11-05T02:30:15.788Z,1000.24
2018-11-05T02:30:56.232Z,1000.23
2018-11-05T02:31:36.639Z,1000.23
2018-11-05T02:32:17.072Z,1000.24
2018-11-05T02:32:57.449Z,1000.26
2018-11-05T02:33:37.885Z,1000.23
2018-11-05T02:34:18.248Z,1000.22
2018-11-05T02:34:58.988Z,1000.24
2018-11-05T02:35:39.212Z,1000.23
2018-11-05T02:36:19.808Z,1000.19
2018-11-05T02:37:00.099Z,1000.16
2018-11-05T02:37:40.455Z,1000.16
2018-11-05T02:38:20.977Z,1000.21
2018-11-05T02:39:01.348Z,1000.14
2018-11-05T02:39:41.651Z,1000.17
2018-11-05T02:40:22.058Z,1000.21
2018-11-05T02:41:02.505Z,1000.21
2018-11-05T02:41:42.882Z,1000.17
2018-11-05T02:42:23.237Z,1000.21
2018-11-05T02:43:03.616Z,1000.17
2018-11-05T02:43:44.145Z,1000.17
2018-11-05T02:44:24.398Z,1000.23
2018-11-05T02:45:04.812Z,1000.24
2018-11-05T02:45:45.451Z,1000.21
2018-11-05T02:46:25.897Z,1000.23
2018-11-05T02:47:06.132Z,1000.21
2018-11-05T02:47:46.587Z,1000.21
2018-11-05T02:48:26.983Z,1000.23
2018-11-05T02:49:07.454Z,1000.24
2018-11-05T02:49:47.865Z,1000.2
2018-11-05T02:50:28.248Z,1000.2
2018-11-05T02:51:08.611Z,1000.17
2018-11-05T02:51:50.595Z,1000.14
2018-11-05T02:52:31.029Z,1000.13
2018-11-05T02:53:11.418Z,1000.09
2018-11-05T02:53:51.874Z,1000.06
2018-11-05T02:54:32.262Z,1000.09
2018-11-05T02:55:12.766Z,1000.07
2018-11-05T02:55:53.132Z,1000.05
2018-11-05T02:56:33.638Z,1000.02
2018-11-05T02:57:14.221Z,1000.06
2018-11-05T02:57:54.680Z,1000.08
2018-11-05T02:58:35.033Z,1000.11
2018-11-05T02:59:15.450Z,1000.12
2018-11-05T02:59:55.921Z,1000.1
2018-11-05T03:00:36.288Z,1000.08
2018-11-05T03:01:16.830Z,1000.07
2018-11-05T03:01:57.129Z,1000.1
2018-11-05T03:02:37.482Z,1000.08
2018-11-05T03:03:17.967Z,1000.1
2018-11-05T03:03:58.255Z,1000.11
2018-11-05T03:04:38.631Z,1000.12
2018-11-05T03:05:19.174Z,1000.11
2018-11-05T03:05:59.461Z,1000.09
2018-11-05T03:08:17.229Z,1000.09
2018-11-05T03:08:57.633Z,1000.05
2018-11-05T03:09:38.145Z,1000.06
2018-11-05T03:10:18.587Z,1000.08
2018-11-05T03:10:58.846Z,1000.05
2018-11-05T03:11:39.242Z,1000.09
2018-11-05T03:12:19.679Z,1000.05
2018-11-05T03:13:00.027Z,1000.1
2018-11-05T03:13:40.441Z,1000.07
2018-11-05T03:14:20.829Z,1000.06
2018-11-05T03:15:01.391Z,1000.05
2018-11-05T03:15:41.639Z,1000.05
2018-11-05T03:16:22.085Z,1000.06
2018-11-05T03:17:02.484Z,1000.03
2018-11-05T03:17:42.889Z,1000.05
2018-11-05T03:18:23.295Z,1000.03
2018-11-05T03:19:03.647Z,999.97
2018-11-05T03:19:44.091Z,999.95
2018-11-05T03:20:24.461Z,999.98
2018-11-05T03:21:04.904Z,999.96
2018-11-05T03:21:45.344Z,999.96
2018-11-05T03:22:25.706Z,999.97
2018-11-05T03:23:06.178Z,1000.02
2018-11-05T03:23:46.560Z,1000.01
2018-11-05T03:24:26.925Z,999.98
2018-11-05T03:25:07.399Z,999.96
2018-11-05T03:25:47.758Z,999.96
2018-11-05T03:26:28.162Z,999.94
2018-11-05T03:27:08.864Z,1000
2018-11-05T03:27:49.057Z,999.98
2018-11-05T03:28:29.485Z,1000.02
2018-11-05T03:29:09.853Z,1000
2018-11-05T03:29:50.209Z,1000
2018-11-05T03:30:30.571Z,999.99
2018-11-05T03:32:24.063Z,999.95
2018-11-05T03:33:04.661Z,999.95
2018-11-05T03:33:45.036Z,999.93
2018-11-05T03:34:25.445Z,999.92
2018-11-05T03:35:05.910Z,999.93
2018-11-05T03:35:46.338Z,999.9
2018-11-05T03:36:26.655Z,999.85
2018-11-05T03:37:07.090Z,999.88
2018-11-05T03:37:47.475Z,999.86
2018-11-05T03:40:05.779Z,999.77
2018-11-05T03:40:46.162Z,999.78
2018-11-05T03:41:26.592Z,999.79
2018-11-05T03:42:06.982Z,999.74
2018-11-05T03:42:47.645Z,999.79
2018-11-05T03:43:27.783Z,999.79
2018-11-05T03:44:08.188Z,999.77
2018-11-05T03:44:48.593Z,999.79
2018-11-05T03:45:28.971Z,999.79
2018-11-05T03:46:09.469Z,999.76
2018-11-05T03:46:49.862Z,999.8
2018-11-05T03:47:30.231Z,999.78
2018-11-05T03:48:10.612Z,999.74
2018-11-05T03:48:51.108Z,999.81
2018-11-05T03:49:31.493Z,999.78
2018-11-05T03:50:12.076Z,999.68
2018-11-05T03:50:52.280Z,999.78
2018-11-05T03:51:32.681Z,999.82
2018-11-05T03:52:13.304Z,999.79
2018-11-05T03:52:53.570Z,999.75
2018-11-05T03:53:33.843Z,999.75
2018-11-05T03:54:14.260Z,999.72
2018-11-05T03:54:54.694Z,999.68
2018-11-05T03:55:35.139Z,999.68
2018-11-05T03:56:15.744Z,999.7
2018-11-05T03:56:55.844Z,999.68
2018-11-05T03:57:36.401Z,999.64
2018-11-05T03:58:16.863Z,999.7
2018-11-05T03:58:57.179Z,999.66
2018-11-05T03:59:37.607Z,999.68
2018-11-05T04:00:18.007Z,999.66
2018-11-05T04:00:58.846Z,999.66
2018-11-05T04:01:39.162Z,999.68
2018-11-05T04:02:19.829Z,999.71
2018-11-05T04:03:00.098Z,999.62
2018-11-05T04:03:40.537Z,999.75
2018-11-05T04:04:20.962Z,999.7
2018-11-05T04:05:01.394Z,999.59
2018-11-05T04:05:41.820Z,999.68
2018-11-05T04:06:22.225Z,999.65
2018-11-05T04:07:02.607Z,999.67
2018-11-05T04:07:43.085Z,999.68
2018-11-05T04:08:23.577Z,999.68
2018-11-05T04:09:03.991Z,999.7
2018-11-05T04:09:44.504Z,999.71
2018-11-05T04:10:24.812Z,999.66
2018-11-05T04:11:05.327Z,999.7
2018-11-05T04:11:45.597Z,999.69
2018-11-05T04:12:26.044Z,999.67
2018-11-05T04:13:06.376Z,999.71
2018-11-05T04:14:59.329Z,999.69
2018-11-05T04:15:39.568Z,999.66
2018-11-05T04:16:19.751Z,999.7
2018-11-05T04:17:00.130Z,999.7
2018-11-05T04:17:40.494Z,999.71
2018-11-05T04:18:20.953Z,999.67
2018-11-05T04:19:01.299Z,999.74
2018-11-05T04:19:41.825Z,999.67
2018-11-05T04:20:22.104Z,999.7
2018-11-05T04:21:02.458Z,999.69
2018-11-05T04:21:43.015Z,999.72
2018-11-05T04:22:23.470Z,999.74
2018-11-05T04:23:03.856Z,999.75
2018-11-05T04:23:44.317Z,999.75
2018-11-05T04:24:24.877Z,999.77
2018-11-05T04:25:05.152Z,999.86
2018-11-05T04:25:45.584Z,999.78
2018-11-05T04:26:26.054Z,999.83
2018-11-05T04:27:06.469Z,999.86
2018-11-05T05:07:58.985Z,999.44
2018-11-05T05:08:49.060Z,999.43
2018-11-05T05:11:21.186Z,999.4
2018-11-05T05:13:22.289Z,999.39
2018-11-05T05:15:15.066Z,999.39
2018-11-05T05:16:24.450Z,999.41
2018-11-05T05:17:25.510Z,999.49
2018-11-05T05:18:17.787Z,999.49
2018-11-05T05:20:36.609Z,999.48
2018-11-05T05:21:31.461Z,999.46
2018-11-05T05:22:24.528Z,999.47
2018-11-05T05:23:17.559Z,999.5
2018-11-05T05:24:10.925Z,999.5
2018-11-05T05:25:05.423Z,999.49
2018-11-05T05:26:07.107Z,999.45
2018-11-05T05:26:59.838Z,999.49
2018-11-05T05:27:51.819Z,999.46
2018-11-05T05:28:44.343Z,999.47
2018-11-05T05:29:37.099Z,999.48
2018-11-05T05:30:29.968Z,999.45
2018-11-05T05:31:22.205Z,999.42
2018-11-05T05:32:14.522Z,999.41
2018-11-05T05:33:06.286Z,999.36
2018-11-05T05:33:58.920Z,999.37
2018-11-05T05:34:52.359Z,999.4
2018-11-05T05:35:44.305Z,999.36
2018-11-05T05:36:36.871Z,999.33
2018-11-05T05:37:29.356Z,999.35
2018-11-05T05:38:22.761Z,999.35
2018-11-05T05:39:15.258Z,999.32
2018-11-05T05:40:07.540Z,999.35
2018-11-05T05:41:00.634Z,999.34
2018-11-05T05:41:53.840Z,999.38
2018-11-05T05:42:45.990Z,999.37
2018-11-05T05:43:38.014Z,999.34
2018-11-05T05:44:30.389Z,999.35
2018-11-05T05:45:23.117Z,999.4
2018-11-05T05:46:16.401Z,999.4
2018-11-05T05:47:08.854Z,999.43
2018-11-05T05:48:00.874Z,999.44
2018-11-05T05:48:53.350Z,999.49
2018-11-05T05:49:45.515Z,999.54
2018-11-05T05:50:38.044Z,999.54
2018-11-05T05:51:30.374Z,999.59
2018-11-05T05:52:23.201Z,999.6
2018-11-05T05:53:15.501Z,999.58
2018-11-05T05:54:07.892Z,999.58
2018-11-05T05:55:01.037Z,999.61
2018-11-05T05:55:53.686Z,999.63
2018-11-05T05:56:46.498Z,999.6
2018-11-05T05:57:43.179Z,999.62
2018-11-05T05:58:36.932Z,999.63
2018-11-05T05:59:29.489Z,999.69
2018-11-05T06:00:23.294Z,999.71
2018-11-05T06:01:15.772Z,999.71
2018-11-05T06:02:08.297Z,999.76
2018-11-05T06:03:01.329Z,999.72
2018-11-05T06:03:56.001Z,999.75
2018-11-05T06:04:48.463Z,999.74
2018-11-05T06:05:41.472Z,999.75
2018-11-05T06:06:33.683Z,999.73
2018-11-05T06:07:25.614Z,999.7
2018-11-05T06:08:19.540Z,999.69
2018-11-05T06:09:12.072Z,999.66
2018-11-05T06:10:05.373Z,999.62
2018-11-05T06:10:52.528Z,999.65
2018-11-05T06:11:33.207Z,999.64
2018-11-05T06:12:13.949Z,999.71
2018-11-05T06:12:54.719Z,999.65
2018-11-05T06:13:36.066Z,999.68
2018-11-05T06:14:18.010Z,999.71
2018-11-05T06:14:58.502Z,999.68
2018-11-05T06:15:39.067Z,999.69
2018-11-05T06:16:19.882Z,999.66
2018-11-05T06:17:00.468Z,999.69
2018-11-05T06:17:42.389Z,999.71
2018-11-05T06:18:23.569Z,999.7
2018-11-05T06:20:18.932Z,999.7
2018-11-05T06:21:13.214Z,999.7
2018-11-05T06:22:08.697Z,999.74
2018-11-05T06:23:03.754Z,999.7
2018-11-05T06:23:56.738Z,999.68
2018-11-05T06:24:49.587Z,999.69
2018-11-05T06:25:44.029Z,999.7
2018-11-05T06:26:43.852Z,999.71
2018-11-05T06:27:42.175Z,999.66
2018-11-05T06:28:37.977Z,999.63
2018-11-05T06:29:32.154Z,999.65
2018-11-05T06:30:25.283Z,999.65
2018-11-05T06:31:20.799Z,999.65
2018-11-05T06:32:15.407Z,999.67
2018-11-05T06:33:10.057Z,999.66
2018-11-05T06:34:04.771Z,999.63
2018-11-05T06:35:01.814Z,999.67
2018-11-05T06:35:57.730Z,999.66
2018-11-05T06:36:53.922Z,999.66
2018-11-05T06:37:44.976Z,999.69
2018-11-05T06:38:38.085Z,999.65
2018-11-05T06:39:36.010Z,999.65
2018-11-05T06:40:30.317Z,999.68
2018-11-05T06:41:27.310Z,999.68
2018-11-05T06:42:21.576Z,999.68
2018-11-05T06:43:16.660Z,999.65
2018-11-05T06:44:09.002Z,999.64
2018-11-05T06:45:03.939Z,999.67
2018-11-05T06:45:56.064Z,999.69
2018-11-05T06:46:59.269Z,999.7
2018-11-05T06:47:56.595Z,999.65
2018-11-05T06:48:58.266Z,999.66
2018-11-05T06:49:57.565Z,999.66
2018-11-05T06:50:53.052Z,999.65
2018-11-05T06:51:53.915Z,999.63
2018-11-05T06:52:48.074Z,999.62
2018-11-05T06:53:43.212Z,999.59
2018-11-05T06:54:36.933Z,999.6
2018-11-05T06:55:29.014Z,999.59
2018-11-05T06:56:21.309Z,999.58
2018-11-05T06:57:13.456Z,999.57
2018-11-05T06:58:05.477Z,999.63
2018-11-05T06:58:59.045Z,999.61
2018-11-05T06:59:51.545Z,999.68
2018-11-05T07:00:43.844Z,999.7
2018-11-05T07:02:40.830Z,999.63
2018-11-05T07:03:22.101Z,999.74
2018-11-05T07:04:02.534Z,999.62
2018-11-05T07:04:46.443Z,999.56
2018-11-05T07:05:28.606Z,999.56
2018-11-05T07:06:10.370Z,999.52
2018-11-05T07:06:50.795Z,999.52
2018-11-05T07:07:39.877Z,999.52
2018-11-05T07:08:23.874Z,999.51
2018-11-05T07:09:06.352Z,999.51
2018-11-05T07:09:46.819Z,999.56
2018-11-05T07:10:27.133Z,999.54
2018-11-05T07:11:10.627Z,999.56
2018-11-05T07:11:51.541Z,999.55
2018-11-05T07:12:38.895Z,999.54
2018-11-05T07:13:22.073Z,999.58
2018-11-05T07:14:07.876Z,999.57
2018-11-05T07:14:50.399Z,999.61
2018-11-05T07:15:32.375Z,999.62
2018-11-05T07:16:15.923Z,999.62
2018-11-05T07:17:00.092Z,999.63
2018-11-05T07:17:43.005Z,999.57
2018-11-05T07:18:23.349Z,999.61
2018-11-05T07:19:08.098Z,999.58
2018-11-05T07:19:55.116Z,999.59
2018-11-05T07:20:46.504Z,999.58
2018-11-05T07:21:28.897Z,999.64
2018-11-05T07:22:11.169Z,999.63
2018-11-05T07:22:53.560Z,999.64
2018-11-05T07:23:44.626Z,999.66
2018-11-05T07:24:31.118Z,999.7
2018-11-05T07:25:11.415Z,999.67
2018-11-05T07:25:55.803Z,999.71
2018-11-05T07:26:36.216Z,999.69
2018-11-05T07:27:16.605Z,999.7
2018-11-05T07:27:58.980Z,999.7
2018-11-05T07:28:41.419Z,999.7
2018-11-05T07:29:25.364Z,999.68
2018-11-05T07:30:05.348Z,999.74
2018-11-05T07:30:50.901Z,999.77
2018-11-05T07:31:37.926Z,999.72
2018-11-05T07:32:22.352Z,999.76
2018-11-05T07:33:06.048Z,999.76
2018-11-05T07:33:54.026Z,999.74
2018-11-05T07:34:35.238Z,999.78
2018-11-05T07:35:17.324Z,999.82
2018-11-05T07:35:58.657Z,999.77
2018-11-05T07:36:43.048Z,999.74
2018-11-05T07:37:24.905Z,999.78
2018-11-05T07:38:05.574Z,999.73
2018-11-05T07:38:45.983Z,999.78
2018-11-05T07:39:28.261Z,999.73
2018-11-05T07:40:09.260Z,999.7
2018-11-05T07:40:49.784Z,999.73
2018-11-05T07:41:30.937Z,999.69
2018-11-05T07:42:11.398Z,999.68
2018-11-05T07:42:52.100Z,999.63
2018-11-05T07:43:32.594Z,999.6
2018-11-05T07:44:14.559Z,999.57
2018-11-05T07:44:55.274Z,999.58
2018-11-05T07:45:35.561Z,999.55
2018-11-05T07:46:16.076Z,999.58
2018-11-05T07:46:56.528Z,999.55
2018-11-05T07:47:36.976Z,999.58
2018-11-05T07:48:18.253Z,999.56
2018-11-05T07:49:01.844Z,999.61
2018-11-05T07:49:42.319Z,999.56
2018-11-05T07:50:23.490Z,999.55
2018-11-05T07:51:05.233Z,999.58
2018-11-05T07:51:45.478Z,999.6
2018-11-05T07:52:27.024Z,999.57
2018-11-05T07:53:10.158Z,999.56
2018-11-05T07:53:53.852Z,999.59
2018-11-05T07:54:36.606Z,999.54
2018-11-05T07:55:18.373Z,999.58
2018-11-05T07:56:00.872Z,999.53
2018-11-05T07:56:45.254Z,999.6
2018-11-05T07:57:27.424Z,999.57
2018-11-05T07:58:07.886Z,999.58
2018-11-05T07:58:48.274Z,999.6
2018-11-05T07:59:32.442Z,999.63
2018-11-05T08:00:18.464Z,999.64
2018-11-05T08:01:07.572Z,999.64
2018-11-05T08:01:49.658Z,999.68
2018-11-05T08:02:30.894Z,999.71
2018-11-05T08:03:11.979Z,999.66
2018-11-05T08:03:57.900Z,999.7
2018-11-05T08:04:40.583Z,999.43
2018-11-05T08:05:22.624Z,999.72
2018-11-05T08:10:58.184Z,999.64
2018-11-05T08:11:38.311Z,999.58
2018-11-05T08:12:19.170Z,999.61
2018-11-05T08:13:00.723Z,999.65
2018-11-05T08:13:42.254Z,999.59
2018-11-05T08:14:22.942Z,999.56
2018-11-05T08:15:03.297Z,999.56
2018-11-05T08:15:43.870Z,999.53
2018-11-05T08:16:24.307Z,999.54
2018-11-05T08:17:04.867Z,999.53
2018-11-05T08:17:45.660Z,999.53
2018-11-05T08:18:26.440Z,999.53
2018-11-05T08:19:08.222Z,999.55
2018-11-05T08:19:47.735Z,999.53
2018-11-05T08:20:28.264Z,999.53
2018-11-05T08:21:08.715Z,999.52
2018-11-05T08:21:49.238Z,999.6
2018-11-05T08:22:30.651Z,999.54
2018-11-05T08:23:11.026Z,999.57
2018-11-05T08:23:52.153Z,999.57
2018-11-05T08:24:33.948Z,999.5
2018-11-05T08:25:13.644Z,999.48
2018-11-05T08:25:54.085Z,999.47
2018-11-05T08:26:34.816Z,999.48
2018-11-05T08:27:15.476Z,999.5
2018-11-05T08:27:56.670Z,999.46
2018-11-05T08:28:36.551Z,999.51
2018-11-05T08:29:17.297Z,999.51
2018-11-05T08:29:58.689Z,999.53
2018-11-05T08:30:38.490Z,999.55
2018-11-05T08:31:19.033Z,999.52
2018-11-05T08:32:00.677Z,999.56
2018-11-05T08:32:41.600Z,999.55
2018-11-05T08:33:22.389Z,999.54
2018-11-05T08:34:04.072Z,999.53
2018-11-05T08:40:31.916Z,999.5
2018-11-05T08:41:12.968Z,999.51
2018-11-05T08:41:53.292Z,999.5
2018-11-05T08:42:34.135Z,999.49
2018-11-05T08:43:14.768Z,999.49
2018-11-05T08:43:55.592Z,999.48
2018-11-05T08:44:36.191Z,999.51
2018-11-05T08:45:16.945Z,999.47
2018-11-05T08:45:57.817Z,999.52
2018-11-05T08:46:40.732Z,999.52
2018-11-05T08:47:21.931Z,999.5
2018-11-05T08:48:02.816Z,999.45
2018-11-05T08:48:43.303Z,999.44
2018-11-05T08:49:24.174Z,999.4
2018-11-05T08:50:05.110Z,999.45
2018-11-05T08:50:45.625Z,999.37
2018-11-05T08:51:27.221Z,999.39
2018-11-05T08:52:08.948Z,999.4
2018-11-05T08:52:49.101Z,999.38
2018-11-05T08:53:31.270Z,999.39
2018-11-05T08:54:12.358Z,999.38
2018-11-05T08:54:55.784Z,999.39
2018-11-05T08:55:37.065Z,999.38
2018-11-05T08:56:18.066Z,999.34
2018-11-05T08:57:03.063Z,999.34
2018-11-05T08:57:43.630Z,999.26
2018-11-05T08:58:27.508Z,999.28
2018-11-05T08:59:08.461Z,999.25
2018-11-05T08:59:49.016Z,999.26
2018-11-05T09:00:29.710Z,999.27
2018-11-05T09:01:10.557Z,999.22
2018-11-05T09:01:54.029Z,999.26
2018-11-05T09:02:34.675Z,999.24
2018-11-05T09:03:15.357Z,999.29
2018-11-05T09:03:56.164Z,999.26
2018-11-05T09:04:38.420Z,999.2
2018-11-05T09:05:19.199Z,999.21
2018-11-05T09:05:59.740Z,999.2
2018-11-05T09:06:41.515Z,999.23
2018-11-05T09:07:21.792Z,999.16
2018-11-05T09:08:03.106Z,999.18
2018-11-05T09:08:44.810Z,999.22
2018-11-05T09:09:24.777Z,999.2
2018-11-05T09:10:05.389Z,999.24
2018-11-05T09:10:46.321Z,999.21
2018-11-05T09:11:37.052Z,999.26
2018-11-05T09:12:21.106Z,999.3
2018-11-05T09:13:06.745Z,999.21
2018-11-05T09:13:51.011Z,999.18
2018-11-05T09:14:32.277Z,999.22
2018-11-05T09:15:14.867Z,999.19
2018-11-05T09:15:59.219Z,999.2
2018-11-05T09:16:42.319Z,999.18
2018-11-05T09:17:25.025Z,999.17
2018-11-05T09:18:06.089Z,999.2
2018-11-05T09:18:49.531Z,999.17
2018-11-05T09:19:38.109Z,999.13
2018-11-05T09:20:18.819Z,999.14
2018-11-05T09:21:10.960Z,999.04
2018-11-05T09:21:53.206Z,999.1
2018-11-05T09:22:38.689Z,999.05
2018-11-05T09:23:25.920Z,999.08
2018-11-05T09:24:11.712Z,999.11
2018-11-05T09:24:56.234Z,999.13
2018-11-05T09:25:36.858Z,999.1
2018-11-05T09:26:17.870Z,999.14
2018-11-05T09:26:59.255Z,999.16
2018-11-05T09:27:39.995Z,999.07
2018-11-05T09:28:20.926Z,999.09
2018-11-05T09:29:02.169Z,999.1
2018-11-05T09:29:42.706Z,999.12
2018-11-05T09:30:24.482Z,999.12
2018-11-05T09:31:04.023Z,999.14
2018-11-05T09:31:45.394Z,999.27
2018-11-05T09:32:26.193Z,999.25
2018-11-05T09:33:08.060Z,999.28
2018-11-05T09:33:49.114Z,999.26
2018-11-05T09:34:29.596Z,999.2
2018-11-05T09:35:10.460Z,999.23
2018-11-05T09:35:51.205Z,999.27
2018-11-05T09:36:31.840Z,999.16
2018-11-05T09:37:12.336Z,999.21
2018-11-05T09:37:52.862Z,999.22
2018-11-05T09:38:33.222Z,999.25
2018-11-05T09:39:13.764Z,999.27
2018-11-05T09:39:56.378Z,999.33
2018-11-05T09:40:37.032Z,999.35
2018-11-05T09:41:18.133Z,999.31
2018-11-05T09:41:58.913Z,999.31
2018-11-05T09:42:39.446Z,999.3
2018-11-05T09:43:20.903Z,999.27
2018-11-05T09:44:01.776Z,999.27
2018-11-05T09:44:42.927Z,999.27
2018-11-05T09:45:23.730Z,999.29
2018-11-05T09:46:05.599Z,999.4
2018-11-05T09:46:46.042Z,999.39
2018-11-05T09:47:27.681Z,999.31
2018-11-05T09:48:08.202Z,999.34
2018-11-05T09:48:49.791Z,999.33
2018-11-05T09:49:29.460Z,999.33
2018-11-05T09:50:10.354Z,999.33
2018-11-05T09:50:51.109Z,999.33
2018-11-05T09:51:32.143Z,999.31
2018-11-05T09:52:12.973Z,999.28
2018-11-05T09:52:54.501Z,999.26
2018-11-05T09:53:34.472Z,999.32
2018-11-05T09:54:16.459Z,999.3
2018-11-05T09:55:00.377Z,999.27
2018-11-05T09:55:41.200Z,999.34
2018-11-05T09:56:22.173Z,999.3
2018-11-05T09:57:02.491Z,999.26
2018-11-05T09:57:43.398Z,999.24
2018-11-05T09:58:24.041Z,999.33
2018-11-05T09:59:06.925Z,999.32
2018-11-05T09:59:48.650Z,999.25
2018-11-05T10:00:30.699Z,999.33
2018-11-05T10:01:10.520Z,999.25
2018-11-05T10:01:50.961Z,999.29